If you wish to contribute or participate in the discussions about articles you are invited to join SKYbrary as a registered user

 Actions

Jacinto Lara International Airport

From SKYbrary Wiki

SVBM
Airport
ICAO: SVBM – IATA: BRM
Summary
Name Jacinto Lara International Airport
Region South America and Caribbean
Territory Venezuela VE.gif
Location Barquisimeto, Lara
Serving Barquisimeto
Elevation 622.402 m
2,042 ft622.402 m
Coordinates 10° 2' 34.01" N, 69° 21' 29.99" W
Runways
Designator Length Width Surface ROPS
9/27 2850 m9,350.394 ft
45 m147.638 ft
ASP /


METAR
Observation SVBM 172100Z 09007KT 9999 SCT016 27/18 Q1014
Station Barquisimeto
Date/Time 17 June 2019 21:00:00
Wind direction 90°
Wind speed 07 kts
Lowest cloud amount scattered clouds
Temperature 27°C
Dew point 18°C
Humidity 57%
QNH 1014 hPa
Weather condition n/a

Jacinto Lara International Airport is an airport in Barquisimeto, Venezuela. It serves the city of Barquisimeto and others such as Acarigua, Yaritagua, and Carora, the main cities in the west-central area of Venezuela.

Climatology

Hot semi-arid climate (Köppen climate classification BSh)

Maps

Terrain

Loading map...

Airport Layout

Loading map...


Accidents & Serious Incidents at or in vicinity of SVBM

None on SKYbrary